Time;durP1;ratioP1;P1;durP2;ratioP2;P2;SDS_P1;SDS_P2;PMS_P1;PMS_P2;Temp;Humidity;BMP_temperature;BMP_pressure;BME280_temperature;BME280_humidity;BME280_pressure;Samples;Min_cycle;Max_cycle;Signal;HPM_P1;HPM_P2
2020/12/22 00:00:33;;;;;;;14.87;13.27;;;;;;;7.78;81.38;100329.72;5037825;28;20540;-72
2020/12/22 00:02:58;;;;;;;16.20;14.30;;;;;;;7.94;81.25;100307.44;5037927;28;20253;-72
2020/12/22 00:05:24;;;;;;;16.90;12.77;;;;;;;7.93;80.94;100321.28;5037973;28;20257;-72
2020/12/22 00:07:49;;;;;;;14.87;13.30;;;;;;;7.65;82.26;100323.47;5037698;28;20248;-72
2020/12/22 00:10:14;;;;;;;14.40;11.90;;;;;;;7.86;81.32;100317.72;5037675;28;20170;-75
2020/12/22 00:12:40;;;;;;;15.53;13.93;;;;;;;8.25;80.25;100307.81;5038206;28;20261;-79
2020/12/22 00:15:09;;;;;;;14.27;12.80;;;;;;;8.07;80.19;100306.75;5036937;28;20166;-78
2020/12/22 00:17:35;;;;;;;14.30;12.70;;;;;;;7.76;81.20;100308.91;5037577;28;20265;-77
2020/12/22 00:20:00;;;;;;;16.17;12.53;;;;;;;7.98;80.86;100292.78;5037902;28;20505;-76
2020/12/22 00:22:25;;;;;;;13.37;12.00;;;;;;;7.75;81.96;100296.81;5037577;28;20204;-75
2020/12/22 00:24:50;;;;;;;13.67;12.27;;;;;;;8.19;81.16;100287.00;5037173;28;20250;-74
2020/12/22 00:27:16;;;;;;;13.23;11.83;;;;;;;8.26;80.07;100274.09;5037695;28;20166;-75
2020/12/22 00:29:41;;;;;;;14.10;12.73;;;;;;;8.02;81.48;100277.25;5037361;28;20251;-74
2020/12/22 00:32:07;;;;;;;14.60;12.50;;;;;;;8.18;80.94;100274.84;5037439;28;20241;-75
2020/12/22 00:34:33;;;;;;;13.80;12.37;;;;;;;8.42;79.96;100264.75;5037243;28;20194;-74
2020/12/22 00:37:03;;;;;;;13.27;11.97;;;;;;;8.16;81.15;100260.97;5037345;28;20459;-77
2020/12/22 00:39:28;;;;;;;15.73;12.07;;;;;;;8.60;79.67;100263.22;5037305;28;20262;-78
2020/12/22 00:41:56;;;;;;;13.70;12.40;;;;;;;8.49;79.66;100251.88;5037491;28;20730;-76
2020/12/22 00:44:22;;;;;;;13.27;11.87;;;;;;;8.30;80.84;100238.63;5037271;28;20427;-75
2020/12/22 00:46:47;;;;;;;13.00;11.60;;;;;;;8.70;79.45;100238.19;5037262;28;20432;-75
2020/12/22 00:49:12;;;;;;;14.33;11.67;;;;;;;8.75;79.24;100241.72;5037069;28;20452;-75
2020/12/22 00:51:38;;;;;;;16.20;12.97;;;;;;;8.64;79.51;100236.41;5037119;28;20440;-74
2020/12/22 00:54:03;;;;;;;12.67;11.23;;;;;;;8.94;78.54;100232.34;5037161;28;20180;-76
2020/12/22 00:56:28;;;;;;;12.57;11.27;;;;;;;8.77;79.08;100221.81;5037434;28;20178;-72
2020/12/22 00:58:54;;;;;;;13.03;11.67;;;;;;;8.53;79.77;100220.72;5036886;28;20436;-70
2020/12/22 01:01:19;;;;;;;12.43;11.23;;;;;;;8.75;79.42;100224.41;5036662;28;20174;-72
2020/12/22 01:03:45;;;;;;;11.53;10.40;;;;;;;8.75;79.67;100221.81;5037174;28;20170;-74
2020/12/22 01:06:10;;;;;;;13.67;12.43;;;;;;;8.81;79.51;100225.28;5031830;28;20262;-77
2020/12/22 01:08:36;;;;;;;13.10;11.83;;;;;;;8.89;78.50;100226.22;5017147;28;21104;-75
2020/12/22 01:11:01;;;;;;;12.30;11.10;;;;;;;9.03;78.54;100226.34;5017415;28;20178;-76
2020/12/22 01:13:26;;;;;;;10.97;9.87;;;;;;;8.87;78.51;100230.56;5016922;28;20455;-74
2020/12/22 01:15:52;;;;;;;14.07;10.90;;;;;;;8.90;78.77;100218.47;5016989;28;20174;-75
2020/12/22 01:18:17;;;;;;;11.27;10.10;;;;;;;8.77;79.87;100220.06;5017393;28;20186;-73
2020/12/22 01:20:42;;;;;;;10.50;9.50;;;;;;;8.90;79.11;100212.38;5016991;28;20185;-76
2020/12/22 01:23:07;;;;;;;11.60;10.50;;;;;;;8.98;78.98;100210.69;5017044;28;20182;-74
2020/12/22 01:25:33;;;;;;;11.33;10.13;;;;;;;8.77;79.80;100204.47;5016983;28;20226;-77
2020/12/22 01:27:58;;;;;;;13.30;10.27;;;;;;;8.67;80.19;100197.44;5017016;28;20468;-74
2020/12/22 01:30:23;;;;;;;10.90;9.90;;;;;;;9.14;79.43;100200.44;5017104;28;20178;-74
2020/12/22 01:32:50;;;;;;;12.60;11.30;;;;;;;8.97;79.51;100195.09;5017049;28;20183;-76
2020/12/22 01:35:15;;;;;;;12.23;10.67;;;;;;;9.22;79.14;100189.19;5034805;28;20201;-75
2020/12/22 01:37:40;;;;;;;11.77;10.57;;;;;;;8.73;81.02;100184.53;5037067;28;20447;-76
2020/12/22 01:40:06;;;;;;;11.00;9.90;;;;;;;8.93;80.29;100182.09;5036552;28;20182;-76
2020/12/22 01:42:31;;;;;;;13.57;12.33;;;;;;;9.17;78.91;100172.69;5036795;28;20213;-75
2020/12/22 01:44:56;;;;;;;11.80;10.60;;;;;;;9.41;78.37;100166.75;5036973;28;20182;-74
2020/12/22 01:47:22;;;;;;;11.07;9.97;;;;;;;9.60;77.70;100170.31;5039078;28;20182;-74
2020/12/22 01:49:47;;;;;;;10.87;9.80;;;;;;;9.68;76.97;100174.72;5040334;28;20206;-75
2020/12/22 01:52:13;;;;;;;9.83;9.00;;;;;;;9.25;79.16;100172.75;5040677;28;20201;-75
2020/12/22 01:54:38;;;;;;;10.87;9.77;;;;;;;9.48;78.10;100154.66;5040404;28;20177;-73
2020/12/22 01:57:11;;;;;;;10.33;9.33;;;;;;;9.24;79.09;100151.09;5040359;28;20174;-73
2020/12/22 01:59:36;;;;;;;9.47;8.57;;;;;;;9.25;79.07;100152.81;5040479;28;20166;-76
2020/12/22 02:02:01;;;;;;;9.60;8.70;;;;;;;9.37;78.63;100145.94;5040182;28;20460;-74
2020/12/22 02:04:27;;;;;;;9.90;9.00;;;;;;;9.24;79.34;100145.00;5040208;28;20437;-75
2020/12/22 02:06:53;;;;;;;9.13;8.33;;;;;;;9.31;78.67;100141.56;5039807;28;20174;-74
2020/12/22 02:09:27;;;;;;;8.90;8.10;;;;;;;9.30;79.20;100139.84;5039083;28;20216;-77
2020/12/22 02:11:52;;;;;;;10.23;9.17;;;;;;;9.47;78.46;100128.63;5040231;28;20244;-74
2020/12/22 02:14:18;;;;;;;9.60;8.70;;;;;;;9.21;79.25;100129.38;5040579;28;20409;-75
2020/12/22 02:16:43;;;;;;;10.50;9.30;;;;;;;9.34;79.03;100127.72;5039927;28;20178;-76
2020/12/22 02:19:09;;;;;;;9.43;8.20;;;;;;;9.26;79.18;100119.88;5039670;28;20171;-73
2020/12/22 02:21:34;;;;;;;10.20;9.20;;;;;;;9.33;79.28;100124.22;5040100;28;20452;-73
2020/12/22 02:23:59;;;;;;;9.93;7.90;;;;;;;9.41;79.64;100119.06;5039594;28;20461;-72
2020/12/22 02:26:25;;;;;;;9.03;8.23;;;;;;;9.42;78.82;100116.47;5039825;28;20477;-71
2020/12/22 02:28:52;;;;;;;9.00;8.10;;;;;;;9.39;79.06;100106.06;5039939;28;20290;-73
2020/12/22 02:31:18;;;;;;;11.10;8.83;;;;;;;9.66;78.05;100094.03;5039440;28;20482;-72
2020/12/22 02:33:44;;;;;;;8.80;7.90;;;;;;;9.47;78.97;100097.41;5039466;28;20760;-74
2020/12/22 02:36:10;;;;;;;8.07;7.30;;;;;;;9.41;79.70;100099.13;5040176;28;20376;-73
2020/12/22 02:38:36;;;;;;;9.07;8.27;;;;;;;9.74;78.62;100081.91;5039443;28;20423;-74
2020/12/22 02:41:01;;;;;;;7.77;7.10;;;;;;;9.59;79.28;100080.13;5039310;28;20815;-74
2020/12/22 02:43:26;;;;;;;8.10;7.40;;;;;;;9.86;78.53;100074.97;5039590;28;20556;-73
2020/12/22 02:45:52;;;;;;;8.17;7.47;;;;;;;9.95;78.18;100069.78;5039447;28;20171;-72
2020/12/22 02:48:17;;;;;;;9.10;8.30;;;;;;;9.79;78.34;100053.25;5039339;28;20619;-72
2020/12/22 02:50:42;;;;;;;7.90;7.20;;;;;;;9.71;79.13;100047.16;5039639;28;20262;-73
2020/12/22 02:53:08;;;;;;;8.30;7.50;;;;;;;10.07;78.36;100056.75;5039292;28;20216;-73
2020/12/22 02:55:33;;;;;;;8.40;7.60;;;;;;;10.29;76.92;100061.97;5038351;28;20174;-72
2020/12/22 02:57:59;;;;;;;7.63;6.90;;;;;;;9.99;78.17;100060.25;5039495;28;20269;-71
2020/12/22 03:00:25;;;;;;;7.50;6.80;;;;;;;9.94;78.87;100050.69;5039108;28;20177;-74
2020/12/22 03:02:51;;;;;;;7.27;6.57;;;;;;;10.28;77.86;100055.03;5039168;28;20650;-71
2020/12/22 03:05:17;;;;;;;5.80;5.30;;;;;;;9.66;80.50;100070.59;5039392;28;20413;-72
2020/12/22 03:07:42;;;;;;;7.43;5.00;;;;;;;10.82;81.77;100036.72;5038951;28;20579;-71
2020/12/22 03:10:09;;;;;;;4.73;3.90;;;;;;;14.42;68.45;100033.19;5038868;28;20512;-70
2020/12/22 03:12:35;;;;;;;4.07;3.67;;;;;;;15.92;64.73;100006.50;5039299;28;20166;-66
2020/12/22 03:15:01;;;;;;;3.50;3.20;;;;;;;16.52;59.46;100004.13;5038786;28;20428;-64
2020/12/22 03:17:26;;;;;;;4.00;3.53;;;;;;;16.07;60.82;99999.13;5038739;28;20481;-64
2020/12/22 03:19:51;;;;;;;3.83;3.53;;;;;;;13.05;65.87;100003.78;5039395;28;20459;-74
2020/12/22 03:22:16;;;;;;;4.93;3.50;;;;;;;11.91;71.43;100001.38;5038661;28;20174;-73
2020/12/22 03:24:42;;;;;;;4.00;3.70;;;;;;;12.36;70.05;99993.19;5038663;28;20222;-75
2020/12/22 03:27:07;;;;;;;4.17;3.87;;;;;;;11.10;74.67;99997.53;5039826;28;20167;-78
2020/12/22 03:29:32;;;;;;;4.10;3.70;;;;;;;11.17;75.31;99991.41;5038453;28;20244;-75
2020/12/22 03:31:58;;;;;;;4.60;4.20;;;;;;;10.93;76.26;99979.31;5038990;28;20178;-77
2020/12/22 03:34:23;;;;;;;4.60;4.13;;;;;;;11.14;75.58;99975.78;5039030;28;20202;-78
2020/12/22 03:36:51;;;;;;;4.47;4.17;;;;;;;11.07;76.59;99959.28;5023581;28;20182;-71
2020/12/22 03:39:18;;;;;;;4.40;3.63;;;;;;;10.73;77.95;99961.16;5018247;28;20202;-71
2020/12/22 03:41:43;;;;;;;4.27;3.97;;;;;;;11.25;76.38;99966.13;5018905;28;20410;-71
2020/12/22 03:44:08;;;;;;;3.97;3.67;;;;;;;11.16;76.86;99960.97;5018575;28;20393;-71
2020/12/22 03:46:34;;;;;;;4.27;3.97;;;;;;;11.28;76.22;99949.59;5018575;28;20183;-71
2020/12/22 03:48:59;;;;;;;3.60;3.30;;;;;;;10.93;77.65;99950.66;5018541;28;20202;-71
2020/12/22 03:51:24;;;;;;;4.00;3.67;;;;;;;11.00;77.83;99941.06;5018228;28;20178;-72
2020/12/22 03:53:50;;;;;;;3.80;3.50;;;;;;;11.04;77.49;99946.25;5018340;28;20195;-72
2020/12/22 03:56:15;;;;;;;4.30;3.30;;;;;;;11.10;77.74;99941.00;5018584;28;20536;-72
2020/12/22 03:58:40;;;;;;;4.33;3.93;;;;;;;11.67;75.90;99931.06;5018296;28;20171;-72
2020/12/22 04:01:05;;;;;;;3.53;3.33;;;;;;;11.41;76.56;99930.38;5018188;28;20162;-72
2020/12/22 04:03:31;;;;;;;3.50;3.20;;;;;;;11.35;77.24;99953.03;5018354;28;20577;-71
2020/12/22 04:05:56;;;;;;;4.80;3.53;;;;;;;11.17;77.43;99940.97;5018089;28;20257;-71
2020/12/22 04:08:21;;;;;;;2.80;2.60;;;;;;;10.91;78.62;99939.38;5017893;28;20199;-72
2020/12/22 04:10:46;;;;;;;2.87;2.67;;;;;;;11.36;77.09;99937.34;5018061;28;20583;-71
2020/12/22 04:13:12;;;;;;;3.57;2.60;;;;;;;11.47;77.60;99929.47;5018036;28;20175;-71
2020/12/22 04:15:37;;;;;;;2.90;2.70;;;;;;;11.03;79.00;99926.25;5017889;28;20199;-70
2020/12/22 04:18:03;;;;;;;3.00;2.70;;;;;;;11.39;77.72;99932.16;5035930;28;20166;-71
2020/12/22 04:20:28;;;;;;;2.70;2.50;;;;;;;11.29;78.23;99922.63;5037306;28;20201;-72
2020/12/22 04:22:53;;;;;;;3.87;2.70;;;;;;;11.56;77.58;99923.31;5026491;28;20175;-71
2020/12/22 04:25:19;;;;;;;2.90;2.70;;;;;;;11.29;78.35;99925.25;5025805;28;20229;-72
2020/12/22 04:27:44;;;;;;;3.40;3.10;;;;;;;11.12;78.93;99928.81;5037634;28;20236;-70
2020/12/22 04:30:09;;;;;;;2.97;2.67;;;;;;;11.47;78.28;99919.03;5028989;28;20623;-70
2020/12/22 04:32:35;;;;;;;2.60;2.40;;;;;;;11.58;77.82;99921.56;5026797;28;20224;-71
2020/12/22 04:35:00;;;;;;;3.00;2.70;;;;;;;11.00;79.54;99920.19;5026696;28;20278;-72
2020/12/22 04:37:25;;;;;;;2.90;2.70;;;;;;;11.61;77.84;99922.41;5020534;28;20170;-72
2020/12/22 04:39:51;;;;;;;3.53;3.17;;;;;;;11.50;78.09;99925.97;5037016;28;20209;-70
2020/12/22 04:42:16;;;;;;;4.00;3.70;;;;;;;11.60;78.23;99919.81;5037098;28;20817;-71
2020/12/22 04:44:42;;;;;;;3.83;3.43;;;;;;;11.71;78.27;99917.09;5036681;28;20167;-71
2020/12/22 04:47:09;;;;;;;4.00;3.70;;;;;;;11.68;77.65;99912.78;5037353;28;20198;-71
2020/12/22 04:49:35;;;;;;;4.00;3.60;;;;;;;11.62;77.82;99907.59;5036840;28;20270;-71
2020/12/22 04:52:01;;;;;;;4.30;3.90;;;;;;;11.70;77.43;99905.78;5036828;28;20411;-71
2020/12/22 04:54:26;;;;;;;4.83;4.43;;;;;;;11.98;76.90;99907.34;5036324;28;20504;-71
2020/12/22 04:56:52;;;;;;;6.30;4.50;;;;;;;11.89;77.33;99905.63;5037146;28;20264;-71
2020/12/22 04:59:17;;;;;;;4.90;4.40;;;;;;;12.04;77.14;99902.91;5037196;28;20540;-71
2020/12/22 05:01:42;;;;;;;4.37;3.97;;;;;;;11.64;79.08;99900.63;5036997;28;20205;-71
2020/12/22 05:04:14;;;;;;;4.23;3.90;;;;;;;11.31;79.81;99907.81;5037048;28;20174;-70
2020/12/22 05:06:39;;;;;;;4.70;4.30;;;;;;;11.62;78.74;99904.97;5037417;28;20409;-70
2020/12/22 05:09:05;;;;;;;3.90;3.50;;;;;;;11.49;79.78;99906.84;5036663;28;20441;-71
2020/12/22 05:11:34;;;;;;;4.50;3.87;;;;;;;11.63;79.76;99901.50;5036672;28;20213;-71
2020/12/22 05:13:59;;;;;;;4.03;3.73;;;;;;;11.71;79.10;99902.28;5037168;28;20402;-71
2020/12/22 05:16:27;;;;;;;3.73;3.43;;;;;;;11.77;78.96;99902.25;5036913;28;20691;-71
2020/12/22 05:18:54;;;;;;;3.77;3.47;;;;;;;11.72;79.41;99919.69;5036907;28;20479;-71
2020/12/22 05:21:20;;;;;;;5.50;4.70;;;;;;;11.79;78.75;99904.84;5038195;28;20432;-71
2020/12/22 05:23:48;;;;;;;4.50;4.10;;;;;;;11.57;80.38;99905.03;5040794;28;20472;-71
2020/12/22 05:26:13;;;;;;;4.97;4.57;;;;;;;11.79;80.41;99910.06;5040836;28;20277;-71
2020/12/22 05:28:38;;;;;;;4.90;4.50;;;;;;;11.61;80.80;99911.97;5041049;28;20448;-71
2020/12/22 05:31:11;;;;;;;5.80;5.30;;;;;;;11.80;80.22;99915.28;5040943;28;20228;-71
2020/12/22 05:33:43;;;;;;;6.20;5.70;;;;;;;11.88;80.13;99910.00;5040582;28;20455;-71
2020/12/22 05:36:09;;;;;;;6.20;5.70;;;;;;;11.86;80.61;99913.50;5040901;28;20647;-72
2020/12/22 05:38:35;;;;;;;6.00;5.50;;;;;;;11.77;80.58;99904.88;5039691;28;20443;-71
2020/12/22 05:41:04;;;;;;;6.80;6.20;;;;;;;12.22;79.37;99899.25;5040762;28;21034;-72
2020/12/22 05:43:36;;;;;;;7.30;6.60;;;;;;;11.97;80.33;99909.06;5040398;28;20387;-71
2020/12/22 05:46:02;;;;;;;7.47;6.63;;;;;;;11.84;80.95;99907.41;5040538;28;20757;-71
2020/12/22 05:48:27;;;;;;;6.97;6.33;;;;;;;11.97;80.94;99911.69;5040401;28;20477;-71
2020/12/22 05:50:54;;;;;;;8.40;7.60;;;;;;;12.05;80.80;99903.78;5040245;28;20568;-72
2020/12/22 05:53:24;;;;;;;8.13;7.33;;;;;;;11.87;81.17;99905.66;5040457;28;20212;-71
2020/12/22 05:55:49;;;;;;;8.73;7.83;;;;;;;11.95;81.40;99903.00;5040230;28;20454;-70
2020/12/22 05:58:15;;;;;;;9.50;8.60;;;;;;;12.22;80.60;99907.09;5039709;28;20730;-72
2020/12/22 06:00:42;;;;;;;10.43;9.43;;;;;;;12.11;81.40;99915.03;5040581;28;20267;-71
2020/12/22 06:03:12;;;;;;;10.43;9.50;;;;;;;12.30;80.61;99899.16;5040255;28;20539;-72
2020/12/22 06:05:41;;;;;;;10.93;9.83;;;;;;;12.15;81.00;99910.66;5040739;28;20428;-71
2020/12/22 06:08:09;;;;;;;10.27;9.23;;;;;;;12.39;80.25;99906.88;5040892;28;20497;-70
2020/12/22 06:10:36;;;;;;;12.37;10.00;;;;;;;12.40;80.12;99910.38;5040925;28;20455;-71
2020/12/22 06:13:01;;;;;;;11.70;10.60;;;;;;;12.45;80.20;99906.81;5040957;28;20503;-71
2020/12/22 06:15:27;;;;;;;11.03;9.93;;;;;;;12.22;81.65;99908.84;5039803;28;20516;-72
2020/12/22 06:17:52;;;;;;;12.70;11.40;;;;;;;12.24;81.71;99918.38;5040082;28;20543;-72
2020/12/22 06:20:21;;;;;;;13.57;12.17;;;;;;;12.15;82.00;99917.59;5040101;28;20190;-71
2020/12/22 06:22:46;;;;;;;12.03;10.83;;;;;;;12.11;82.12;99911.56;5039759;28;20189;-71
2020/12/22 06:25:12;;;;;;;12.97;11.67;;;;;;;12.19;82.05;99916.69;5038852;28;20889;-71
2020/12/22 06:27:37;;;;;;;12.60;10.97;;;;;;;12.19;81.83;99924.53;5039753;28;20174;-72
2020/12/22 06:30:03;;;;;;;12.57;11.27;;;;;;;12.37;81.96;99919.13;5039490;28;20170;-71
2020/12/22 06:32:29;;;;;;;12.70;11.40;;;;;;;12.24;82.03;99925.34;5039152;28;20213;-71
2020/12/22 06:34:56;;;;;;;13.40;12.00;;;;;;;12.15;82.61;99933.28;5039842;28;20562;-71
2020/12/22 06:37:23;;;;;;;11.33;10.20;;;;;;;12.23;82.33;99929.72;5038556;28;20552;-71
2020/12/22 06:39:50;;;;;;;13.80;12.40;;;;;;;12.32;82.28;99936.59;5039181;28;20428;-71
2020/12/22 06:42:30;;;;;;;12.43;11.13;;;;;;;12.26;81.98;99934.06;5039783;28;20471;-71
2020/12/22 06:45:21;;;;;;;12.30;11.10;;;;;;;12.33;82.09;99935.72;5039394;28;20626;-71
2020/12/22 06:47:47;;;;;;;12.30;11.10;;;;;;;12.52;81.50;99936.38;5039215;28;20457;-71
2020/12/22 06:50:12;;;;;;;11.57;10.40;;;;;;;12.55;81.06;99938.09;5038429;28;20454;-71
2020/12/22 06:52:42;;;;;;;10.83;9.83;;;;;;;12.68;80.84;99944.03;5039313;28;20174;-71
2020/12/22 06:55:09;;;;;;;10.80;9.77;;;;;;;12.85;80.34;99938.59;5039278;28;20166;-71
2020/12/22 06:57:50;;;;;;;10.37;9.37;;;;;;;12.74;80.58;99944.81;5038976;28;20664;-72
2020/12/22 07:00:23;;;;;;;10.97;9.87;;;;;;;12.90;80.22;99952.50;5039008;28;20424;-72
2020/12/22 07:02:49;;;;;;;9.27;8.37;;;;;;;12.75;80.78;99957.03;5039213;28;20656;-72
2020/12/22 07:05:35;;;;;;;8.80;7.90;;;;;;;12.41;81.55;99962.63;5039052;28;20413;-72
2020/12/22 07:08:01;;;;;;;9.20;8.30;;;;;;;12.34;82.38;99966.22;5038341;28;20586;-72
2020/12/22 07:10:28;;;;;;;10.00;9.00;;;;;;;12.54;81.86;99971.22;5037869;28;20484;-72
2020/12/22 07:12:56;;;;;;;8.90;8.07;;;;;;;12.60;81.30;99965.91;5039148;28;20421;-71
2020/12/22 07:15:21;;;;;;;8.10;7.40;;;;;;;12.59;81.16;99977.25;5038555;28;20395;-71
2020/12/22 07:17:49;;;;;;;8.00;7.30;;;;;;;12.63;81.52;99971.09;5038672;28;20796;-71
2020/12/22 07:20:14;;;;;;;7.00;6.40;;;;;;;12.49;81.63;99969.53;5038679;28;20166;-72
2020/12/22 07:22:40;;;;;;;6.93;6.33;;;;;;;12.83;81.08;99974.38;5038637;28;20396;-71
2020/12/22 07:25:06;;;;;;;6.93;6.33;;;;;;;12.63;81.77;99984.19;5038335;28;20248;-71
2020/12/22 07:27:32;;;;;;;6.40;5.90;;;;;;;12.94;80.96;99983.81;5038590;28;20173;-71
2020/12/22 07:29:57;;;;;;;6.40;5.90;;;;;;;12.94;80.85;99990.81;5038509;28;20171;-70
2020/12/22 07:32:24;;;;;;;6.13;5.63;;;;;;;12.65;81.86;99986.81;5038464;28;20420;-71
2020/12/22 07:34:49;;;;;;;6.53;6.03;;;;;;;12.67;81.79;99992.88;5038856;28;20178;-71
2020/12/22 07:37:14;;;;;;;6.60;6.10;;;;;;;12.89;81.37;99990.00;5038439;28;20425;-71
2020/12/22 07:39:40;;;;;;;6.23;5.73;;;;;;;12.61;81.95;99995.53;5037701;28;20519;-72
2020/12/22 07:42:10;;;;;;;6.30;5.70;;;;;;;12.59;82.33;100002.53;5038439;28;20173;-72
2020/12/22 07:44:36;;;;;;;7.37;6.70;;;;;;;12.46;83.14;100013.13;5037367;28;20491;-71
2020/12/22 07:47:02;;;;;;;6.80;6.20;;;;;;;12.86;81.95;100006.59;5038225;28;20427;-72
2020/12/22 07:49:27;;;;;;;7.20;6.50;;;;;;;13.00;80.93;100013.41;5038114;28;20456;-71
2020/12/22 07:51:53;;;;;;;6.50;5.90;;;;;;;13.10;81.01;100012.44;5037767;28;20396;-71
2020/12/22 07:54:18;;;;;;;6.70;6.13;;;;;;;12.87;81.24;100017.94;5037945;28;20182;-72
2020/12/22 07:56:44;;;;;;;6.80;6.10;;;;;;;12.72;82.05;100022.44;5038418;28;20193;-71
2020/12/22 07:59:15;;;;;;;8.60;7.70;;;;;;;12.82;82.09;100025.81;5037921;28;20420;-72
2020/12/22 08:01:42;;;;;;;6.80;5.93;;;;;;;12.65;82.36;100028.63;5037749;28;20392;-71
2020/12/22 08:04:23;;;;;;;6.33;5.77;;;;;;;12.67;82.60;100024.25;5037966;28;20445;-71
2020/12/22 08:06:58;;;;;;;6.73;6.13;;;;;;;12.83;81.91;100029.28;5036958;28;20423;-71
2020/12/22 08:09:31;;;;;;;6.47;5.87;;;;;;;12.72;82.35;100032.91;5037531;28;20511;-72
2020/12/22 08:11:58;;;;;;;5.90;5.27;;;;;;;12.73;82.36;100039.00;5037750;28;20388;-71
2020/12/22 08:14:25;;;;;;;6.10;5.60;;;;;;;12.85;81.94;100040.63;5037089;28;20413;-71
2020/12/22 08:16:51;;;;;;;6.40;5.80;;;;;;;12.93;81.53;100038.78;5037622;28;20387;-71
2020/12/22 08:19:17;;;;;;;5.70;5.20;;;;;;;12.67;81.94;100046.94;5037473;28;20389;-72
2020/12/22 08:21:44;;;;;;;6.80;6.20;;;;;;;12.68;82.54;100046.91;5037008;28;20412;-72
2020/12/22 08:24:09;;;;;;;6.60;6.00;;;;;;;12.88;81.82;100049.31;5036801;28;20214;-72
2020/12/22 08:26:35;;;;;;;5.70;5.10;;;;;;;13.11;80.73;100048.16;5036776;28;20424;-71
2020/12/22 08:29:02;;;;;;;5.63;5.13;;;;;;;12.66;82.42;100042.56;5037618;28;20256;-72
2020/12/22 08:31:27;;;;;;;5.00;4.60;;;;;;;12.89;82.22;100063.25;5037275;28;20265;-71
2020/12/22 08:33:55;;;;;;;4.60;4.30;;;;;;;12.80;81.84;100051.16;5037496;28;20463;-72
2020/12/22 08:36:22;;;;;;;4.60;4.20;;;;;;;13.19;80.97;100063.78;5037622;28;20178;-69
2020/12/22 08:38:47;;;;;;;4.70;4.30;;;;;;;13.83;77.27;100059.47;5037044;28;20415;-78
2020/12/22 08:41:15;;;;;;;3.90;3.60;;;;;;;13.54;78.35;100059.88;5036977;28;20446;-75
2020/12/22 08:43:51;;;;;;;3.50;3.20;;;;;;;13.54;78.35;100057.25;5036455;28;20312;-76
2020/12/22 08:46:17;;;;;;;4.90;4.00;;;;;;;12.99;80.73;100064.91;5029418;28;20448;-75
2020/12/22 08:48:43;;;;;;;3.90;3.60;;;;;;;13.17;79.93;100073.41;5036828;28;20460;-75
2020/12/22 08:51:08;;;;;;;3.77;3.40;;;;;;;13.09;80.60;100081.34;5036821;28;20444;-75
2020/12/22 08:53:35;;;;;;;4.07;3.77;;;;;;;13.26;79.90;100088.97;5036770;28;20166;-75
2020/12/22 08:56:10;;;;;;;5.70;3.70;;;;;;;12.72;82.12;100098.28;5036942;28;20180;-76
2020/12/22 08:58:53;;;;;;;3.93;3.63;;;;;;;13.27;80.03;100085.50;5037014;28;20412;-76
2020/12/22 09:01:21;;;;;;;3.60;3.30;;;;;;;13.13;80.26;100089.13;5036857;28;20402;-75
2020/12/22 09:03:49;;;;;;;3.90;3.60;;;;;;;13.01;81.44;100094.50;5036752;28;20400;-75
2020/12/22 09:06:14;;;;;;;4.47;4.07;;;;;;;12.83;81.90;100110.38;5036928;28;20392;-74
2020/12/22 09:08:40;;;;;;;3.90;3.60;;;;;;;12.94;81.30;100098.09;5037151;28;20459;-75
2020/12/22 09:11:05;;;;;;;3.93;3.63;;;;;;;12.93;81.51;100099.81;5037030;28;20513;-77
2020/12/22 09:13:32;;;;;;;4.47;4.07;;;;;;;12.81;82.04;100113.03;5036731;28;20453;-75
2020/12/22 09:15:57;;;;;;;4.20;3.90;;;;;;;12.85;81.55;100111.25;5034244;28;20532;-76
2020/12/22 09:18:23;;;;;;;4.93;4.17;;;;;;;12.88;81.85;100112.09;5025560;28;20480;-74
2020/12/22 09:21:02;;;;;;;6.90;6.23;;;;;;;13.10;80.99;100115.34;5032796;28;20177;-74
2020/12/22 09:23:27;;;;;;;4.30;4.00;;;;;;;13.06;81.02;100111.03;5036505;28;20174;-76
2020/12/22 09:25:52;;;;;;;3.10;2.90;;;;;;;13.09;81.07;100113.59;5019565;28;20870;-75
2020/12/22 09:28:21;;;;;;;3.50;3.20;;;;;;;13.02;80.99;100114.56;5017302;28;20247;-73
2020/12/22 09:30:46;;;;;;;3.60;3.30;;;;;;;12.78;81.65;100128.75;5016769;28;20179;-73
2020/12/22 09:33:11;;;;;;;3.03;2.77;;;;;;;12.82;81.75;100124.38;5023725;28;20666;-72
2020/12/22 09:35:37;;;;;;;3.57;3.23;;;;;;;12.83;81.54;100120.84;5036791;28;20173;-73
2020/12/22 09:38:02;;;;;;;3.40;3.10;;;;;;;12.82;81.89;100134.84;5036564;28;20186;-74
2020/12/22 09:40:27;;;;;;;3.50;3.20;;;;;;;13.08;81.14;100132.84;5036474;28;20174;-74
2020/12/22 09:42:53;;;;;;;4.13;3.70;;;;;;;12.92;81.25;100128.59;5037227;28;20200;-76
2020/12/22 09:45:18;;;;;;;4.10;3.70;;;;;;;12.94;81.29;100134.72;5036537;28;20185;-76
2020/12/22 09:47:43;;;;;;;5.00;4.27;;;;;;;13.04;81.06;100141.56;5036147;28;20178;-74
2020/12/22 09:50:09;;;;;;;4.60;4.20;;;;;;;13.21;80.15;100138.78;5030828;28;20264;-75
2020/12/22 09:52:34;;;;;;;4.77;4.10;;;;;;;13.20;79.90;100144.91;5016823;28;20575;-75
2020/12/22 09:54:59;;;;;;;4.27;3.87;;;;;;;13.13;80.29;100136.25;5032371;28;20447;-74
2020/12/22 09:57:24;;;;;;;4.80;4.27;;;;;;;13.11;80.61;100132.78;5036747;28;20178;-76
2020/12/22 09:59:50;;;;;;;4.90;4.43;;;;;;;13.30;79.64;100143.03;5036374;28;20189;-75
2020/12/22 10:02:15;;;;;;;5.00;4.50;;;;;;;13.42;79.44;100137.72;5036512;28;20536;-77
2020/12/22 10:04:41;;;;;;;3.93;3.57;;;;;;;13.02;80.72;100143.34;5036640;28;20181;-76
2020/12/22 10:07:06;;;;;;;7.63;4.10;;;;;;;13.20;80.01;100136.19;5037042;28;20179;-76
2020/12/22 10:09:31;;;;;;;4.53;4.13;;;;;;;12.98;80.99;100137.25;5040092;28;20483;-79
2020/12/22 10:11:57;;;;;;;4.07;3.77;;;;;;;13.20;80.54;100136.19;5040661;28;20247;-80
2020/12/22 10:14:22;;;;;;;4.00;3.63;;;;;;;13.03;80.78;100144.19;5040232;28;20449;-74
2020/12/22 10:16:47;;;;;;;4.33;3.90;;;;;;;13.03;81.07;100134.63;5019670;28;20183;-78
2020/12/22 10:19:12;;;;;;;4.00;3.70;;;;;;;13.27;80.59;100146.59;5020285;28;20227;-75
2020/12/22 10:21:38;;;;;;;4.40;4.00;;;;;;;13.22;80.91;100139.63;5019916;28;20166;-75
2020/12/22 10:24:06;;;;;;;4.00;3.60;;;;;;;13.01;80.94;100152.06;5019187;28;20612;-75
2020/12/22 10:26:32;;;;;;;4.90;4.40;;;;;;;13.06;81.36;100137.19;5020223;28;20185;-79
2020/12/22 10:28:57;;;;;;;4.53;3.60;;;;;;;13.13;81.19;100146.72;5008959;28;20469;-76
2020/12/22 10:31:25;;;;;;;5.13;3.40;;;;;;;13.36;80.36;100148.25;5039746;28;20174;-79
2020/12/22 10:33:50;;;;;;;7.50;5.70;;;;;;;13.27;80.60;100148.31;5040496;28;20215;-75
2020/12/22 10:36:17;;;;;;;4.07;3.63;;;;;;;12.95;81.19;100163.47;5032873;28;20498;-77
2020/12/22 10:38:42;;;;;;;5.03;3.70;;;;;;;13.42;80.24;100173.50;5019483;28;20464;-73
2020/12/22 10:41:07;;;;;;;6.20;4.73;;;;;;;13.46;79.79;100180.41;5019694;28;20410;-74
2020/12/22 10:43:33;;;;;;;2.50;2.30;;;;;;;13.18;79.95;100182.44;5018774;28;20190;-74
2020/12/22 10:45:58;;;;;;;2.83;2.60;;;;;;;13.02;79.66;100194.81;5029974;28;20190;-74
2020/12/22 10:48:24;;;;;;;2.63;2.00;;;;;;;13.27;78.71;100195.44;5022243;28;20191;-76
2020/12/22 10:50:50;;;;;;;5.53;5.07;;;;;;;13.24;78.29;100205.94;5039126;28;20447;-76
2020/12/22 10:53:15;;;;;;;2.30;2.10;;;;;;;12.79;79.11;100212.44;5032160;28;20400;-71
2020/12/22 10:55:40;;;;;;;2.30;2.10;;;;;;;12.89;77.81;100215.84;5019435;28;20171;-70
2020/12/22 10:58:07;;;;;;;2.20;2.00;;;;;;;12.93;77.47;100237.63;5019366;28;20618;-74
2020/12/22 11:00:32;;;;;;;1.90;1.80;;;;;;;12.75;77.93;100238.66;5019454;28;20167;-74
2020/12/22 11:03:01;;;;;;;3.57;3.27;;;;;;;12.86;77.30;100246.41;5036311;28;20475;-73
2020/12/22 11:08:11;;;;;;;3.10;2.90;;;;;;;12.36;78.59;100262.41;5039062;28;20490;-76
2020/12/22 11:10:36;;;;;;;5.10;4.60;;;;;;;12.44;77.54;100271.06;5038937;28;20490;-74
2020/12/22 11:13:03;;;;;;;3.73;3.43;;;;;;;11.97;77.74;100287.84;5038951;28;20637;-75
2020/12/22 11:15:28;;;;;;;6.47;5.53;;;;;;;12.17;77.62;100293.00;5039148;28;20163;-77
2020/12/22 11:17:53;;;;;;;6.13;5.63;;;;;;;11.87;77.39;100309.63;5038575;28;20384;-74
2020/12/22 11:20:19;;;;;;;12.77;10.43;;;;;;;11.99;77.02;100309.63;5019871;28;20182;-75
2020/12/22 11:22:46;;;;;;;8.10;7.03;;;;;;;12.06;75.47;100327.00;5019318;28;20177;-78
2020/12/22 11:25:11;;;;;;;7.07;6.37;;;;;;;12.18;76.51;100319.97;5019167;28;20671;-76